CheckWX is a tool to help pilots better visualize weather data.  It is not intended as a substitute for an official pre-flight weather briefing.

17:07:41 UTC

ETNN METAR
Norvenich Airport
Germany
Current

48 mins ago

ETNN 211620Z 27010KT 9999 FEW055 BKN300 25/11 Q1022 BLU+
Observed
Jul-21 @ 16:20 UTC
Wind
  • 270° at 10 KTS
Visibility
10,000+ meters
Flight Rules
VFR
Cloud Levels
  • Few at 5,500' AGL
  • Broken at 30,000' AGL
Temperature
25°C / 77°F
Dewpoint
11°C / 52°F
Humidity
42%
Altimeter
30.18" Hg
Pressure
1021.92 hPa
Previous

2 hours ago

ETNN 211520Z 27010KT 9999 FEW055 BKN260 24/12 Q1022 BLU+
Observed
Jul-21 @ 15:20 UTC
Wind
  • 270° at 10 KTS
Visibility
10,000+ meters
Flight Rules
VFR
Cloud Levels
  • Few at 5,500' AGL
  • Broken at 26,000' AGL
Temperature
24°C / 75°F
Dewpoint
12°C / 54°F
Humidity
47%
Altimeter
30.18" Hg
Pressure
1021.92 hPa
Previous

3 hours ago

ETNN 211420Z 26009KT 9999 FEW050 BKN270 25/12 Q1022 BLU+
Observed
Jul-21 @ 14:20 UTC
Wind
  • 260° at 9 KTS
Visibility
10,000+ meters
Flight Rules
VFR
Cloud Levels
  • Few at 5,000' AGL
  • Broken at 27,000' AGL
Temperature
25°C / 77°F
Dewpoint
12°C / 54°F
Humidity
44%
Altimeter
30.18" Hg
Pressure
1021.92 hPa